sensor_id;sensor_type;location;lat;lon;timestamp;pressure;altitude;pressure_sealevel;temperature;humidity
56558;BME280;43358;50.356;12.456;2023-09-30T00:00:16;96039;;;15.6;93
56558;BME280;43358;50.356;12.456;2023-09-30T00:51:50;96060;;;15.5;97.5
56558;BME280;43358;50.356;12.456;2023-09-30T01:17:46;96061;;;15.5;97.9
56558;BME280;43358;50.356;12.456;2023-09-30T01:19:07;96060;;;15;98.8
56558;BME280;43358;50.356;12.456;2023-09-30T01:21:24;96067;;;15;98.8
56558;BME280;43358;50.356;12.456;2023-09-30T01:22:07;96074;;;15;98.8
56558;BME280;43358;50.356;12.456;2023-09-30T01:23:07;96088;;;15;98.8
56558;BME280;43358;50.356;12.456;2023-09-30T01:25:08;96106;;;15.1;98.8
56558;BME280;43358;50.356;12.456;2023-09-30T01:27:07;96108;;;15.1;98.8
56558;BME280;43358;50.356;12.456;2023-09-30T01:29:12;96109;;;15.1;98.8
56558;BME280;43358;50.356;12.456;2023-09-30T01:31:17;96116;;;15.1;98.3
56558;BME280;43358;50.356;12.456;2023-09-30T01:32:19;96117;;;15.1;98.1
56558;BME280;43358;50.356;12.456;2023-09-30T01:33:21;96121;;;15.1;98.1
56558;BME280;43358;50.356;12.456;2023-09-30T01:36:28;96123;;;15.1;98
56558;BME280;43358;50.356;12.456;2023-09-30T01:37:30;96119;;;15.1;98
56558;BME280;43358;50.356;12.456;2023-09-30T01:38:32;96121;;;15;98.3
56558;BME280;43358;50.356;12.456;2023-09-30T01:39:34;96120;;;15;97.8
56558;BME280;43358;50.356;12.456;2023-09-30T01:40:36;96118;;;15;97.5
56558;BME280;43358;50.356;12.456;2023-09-30T01:42:07;96116;;;14.9;98.2
56558;BME280;43358;50.356;12.456;2023-09-30T01:44:08;96119;;;14.8;98.8
56558;BME280;43358;50.356;12.456;2023-09-30T01:45:08;96115;;;14.8;98.8
56558;BME280;43358;50.356;12.456;2023-09-30T01:46:07;96114;;;14.7;98.8
56558;BME280;43358;50.356;12.456;2023-09-30T01:47:41;96115;;;14.7;98.8
56558;BME280;43358;50.356;12.456;2023-09-30T01:48:07;96118;;;14.7;98.6
56558;BME280;43358;50.356;12.456;2023-09-30T01:50:20;96118;;;14.7;98.3
56558;BME280;43358;50.356;12.456;2023-09-30T01:51:07;96124;;;14.7;98
56558;BME280;43358;50.356;12.456;2023-09-30T01:52:07;96123;;;14.7;98.6
56558;BME280;43358;50.356;12.456;2023-09-30T01:53:07;96125;;;14.6;98.8
56558;BME280;43358;50.356;12.456;2023-09-30T01:54:21;96125;;;14.6;98.8
56558;BME280;43358;50.356;12.456;2023-09-30T01:55:25;96126;;;14.6;98.8
56558;BME280;43358;50.356;12.456;2023-09-30T01:56:27;96127;;;14.6;98.8
56558;BME280;43358;50.356;12.456;2023-09-30T01:57:36;96129;;;14.6;98.8
56558;BME280;43358;50.356;12.456;2023-09-30T01:58:39;96130;;;14.6;98.8
56558;BME280;43358;50.356;12.456;2023-09-30T01:59:41;96132;;;14.5;98.8
56558;BME280;43358;50.356;12.456;2023-09-30T02:01:47;96135;;;14.5;98.8
56558;BME280;43358;50.356;12.456;2023-09-30T02:01:49;96130;;;14.5;98.8
56558;BME280;43358;50.356;12.456;2023-09-30T02:02:51;96130;;;14.5;98.8
56558;BME280;43358;50.356;12.456;2023-09-30T02:04:45;96135;;;14.5;98.8
56558;BME280;43358;50.356;12.456;2023-09-30T02:05:58;96139;;;14.4;98.8
56558;BME280;43358;50.356;12.456;2023-09-30T02:08:02;96136;;;14.4;98.8
56558;BME280;43358;50.356;12.456;2023-09-30T02:09:04;96133;;;14.4;98.8
56558;BME280;43358;50.356;12.456;2023-09-30T02:10:06;96137;;;14.4;98.8
56558;BME280;43358;50.356;12.456;2023-09-30T02:11:08;96131;;;14.4;98.8
56558;BME280;43358;50.356;12.456;2023-09-30T02:14:15;96129;;;14.4;98.8
56558;BME280;43358;50.356;12.456;2023-09-30T02:17:23;96129;;;14.4;98.8
56558;BME280;43358;50.356;12.456;2023-09-30T02:18:25;96128;;;14.3;98.8
56558;BME280;43358;50.356;12.456;2023-09-30T02:20:14;96130;;;14.3;98.8
56558;BME280;43358;50.356;12.456;2023-09-30T02:23:11;96137;;;14.3;98.8
56558;BME280;43358;50.356;12.456;2023-09-30T02:24:31;96134;;;14.3;98.8
56558;BME280;43358;50.356;12.456;2023-09-30T02:25:33;96139;;;14.3;98.8
56558;BME280;43358;50.356;12.456;2023-09-30T02:27:07;96137;;;14.3;98.8
56558;BME280;43358;50.356;12.456;2023-09-30T02:29:18;96142;;;14.3;98.8
56558;BME280;43358;50.356;12.456;2023-09-30T02:30:08;96141;;;14.2;98.8
56558;BME280;43358;50.356;12.456;2023-09-30T02:31:47;96137;;;14.2;98.8
56558;BME280;43358;50.356;12.456;2023-09-30T02:33:56;96146;;;14.2;98.8
56558;BME280;43358;50.356;12.456;2023-09-30T02:34:58;96147;;;14.2;98.8
56558;BME280;43358;50.356;12.456;2023-09-30T02:36:00;96148;;;14.2;98.8
56558;BME280;43358;50.356;12.456;2023-09-30T02:38:12;96148;;;14.2;98.8
56558;BME280;43358;50.356;12.456;2023-09-30T02:40:18;96145;;;14.2;98.8
56558;BME280;43358;50.356;12.456;2023-09-30T02:41:25;96146;;;14.2;98.8
56558;BME280;43358;50.356;12.456;2023-09-30T02:42:27;96146;;;14.2;98.8
56558;BME280;43358;50.356;12.456;2023-09-30T02:43:29;96146;;;14.1;98.8
56558;BME280;43358;50.356;12.456;2023-09-30T02:44:31;96145;;;14.2;98.8
56558;BME280;43358;50.356;12.456;2023-09-30T02:45:53;96149;;;14.2;98.8
56558;BME280;43358;50.356;12.456;2023-09-30T02:46:55;96146;;;14.2;98.8
56558;BME280;43358;50.356;12.456;2023-09-30T02:47:57;96146;;;14.2;98.8
56558;BME280;43358;50.356;12.456;2023-09-30T02:49:21;96149;;;14.2;98.8
56558;BME280;43358;50.356;12.456;2023-09-30T02:51:09;96148;;;14.1;98.8
56558;BME280;43358;50.356;12.456;2023-09-30T02:53:17;96145;;;14.1;98.8
56558;BME280;43358;50.356;12.456;2023-09-30T02:54:08;96147;;;14.1;98.8
56558;BME280;43358;50.356;12.456;2023-09-30T02:57:08;96147;;;14.1;98.8
56558;BME280;43358;50.356;12.456;2023-09-30T02:58:08;96148;;;14.1;98.8
56558;BME280;43358;50.356;12.456;2023-09-30T02:59:08;96147;;;14.1;98.8
56558;BME280;43358;50.356;12.456;2023-09-30T03:01:09;96153;;;14.1;98.8
56558;BME280;43358;50.356;12.456;2023-09-30T03:02:15;96156;;;14;98.8
56558;BME280;43358;50.356;12.456;2023-09-30T03:05:08;96164;;;14;98.8
56558;BME280;43358;50.356;12.456;2023-09-30T03:06:07;96165;;;14;98.8
56558;BME280;43358;50.356;12.456;2023-09-30T03:08:26;96173;;;13.9;98.8
56558;BME280;43358;50.356;12.456;2023-09-30T03:10:30;96176;;;13.9;98.8
56558;BME280;43358;50.356;12.456;2023-09-30T03:11:32;96178;;;13.9;98.8
56558;BME280;43358;50.356;12.456;2023-09-30T03:12:46;96179;;;13.9;98.8
56558;BME280;43358;50.356;12.456;2023-09-30T03:13:48;96183;;;13.9;98.8
56558;BME280;43358;50.356;12.456;2023-09-30T03:14:51;96184;;;13.9;98.8
56558;BME280;43358;50.356;12.456;2023-09-30T03:15:53;96185;;;13.9;98.8
56558;BME280;43358;50.356;12.456;2023-09-30T03:16:55;96185;;;13.9;98.8
56558;BME280;43358;50.356;12.456;2023-09-30T03:19:05;96174;;;13.9;98.8
56558;BME280;43358;50.356;12.456;2023-09-30T03:20:07;96173;;;13.9;98.8
56558;BME280;43358;50.356;12.456;2023-09-30T03:21:12;96171;;;13.8;98.8
56558;BME280;43358;50.356;12.456;2023-09-30T03:23:08;96168;;;13.8;98.8
56558;BME280;43358;50.356;12.456;2023-09-30T03:24:38;96169;;;13.8;98.8
56558;BME280;43358;50.356;12.456;2023-09-30T03:25:08;96178;;;13.8;98.8
56558;BME280;43358;50.356;12.456;2023-09-30T03:26:08;96181;;;13.8;98.8
56558;BME280;43358;50.356;12.456;2023-09-30T03:27:08;96186;;;13.8;98.8
56558;BME280;43358;50.356;12.456;2023-09-30T03:28:20;96186;;;13.8;98.8
56558;BME280;43358;50.356;12.456;2023-09-30T03:30:08;96195;;;13.8;98.8
56558;BME280;43358;50.356;12.456;2023-09-30T03:31:54;96203;;;13.9;98.8
56558;BME280;43358;50.356;12.456;2023-09-30T03:37:59;96207;;;13.9;98.8
56558;BME280;43358;50.356;12.456;2023-09-30T03:38:08;96211;;;13.8;98.8
56558;BME280;43358;50.356;12.456;2023-09-30T03:39:14;96211;;;13.8;98.8
56558;BME280;43358;50.356;12.456;2023-09-30T03:40:08;96212;;;13.8;98.8
56558;BME280;43358;50.356;12.456;2023-09-30T03:41:08;96217;;;13.8;98.8
56558;BME280;43358;50.356;12.456;2023-09-30T03:42:08;96219;;;13.8;98.8
56558;BME280;43358;50.356;12.456;2023-09-30T03:44:08;96226;;;13.8;98.8
56558;BME280;43358;50.356;12.456;2023-09-30T03:45:08;96231;;;13.8;98.8
56558;BME280;43358;50.356;12.456;2023-09-30T03:46:08;96223;;;13.9;98.4
56558;BME280;43358;50.356;12.456;2023-09-30T03:47:10;96226;;;14;97.3
56558;BME280;43358;50.356;12.456;2023-09-30T03:48:12;96231;;;14;97
56558;BME280;43358;50.356;12.456;2023-09-30T03:50:16;96240;;;14;95.4
56558;BME280;43358;50.356;12.456;2023-09-30T03:53:08;96243;;;13.9;94.5
56558;BME280;43358;50.356;12.456;2023-09-30T03:54:08;96246;;;13.9;94.5
56558;BME280;43358;50.356;12.456;2023-09-30T03:55:57;96261;;;13.9;94.4
56558;BME280;43358;50.356;12.456;2023-09-30T03:58:07;96255;;;13.9;92.4
56558;BME280;43358;50.356;12.456;2023-09-30T04:04:47;96259;;;13.4;95.6
56558;BME280;43358;50.356;12.456;2023-09-30T04:07:55;96261;;;13.3;95.8
56558;BME280;43358;50.356;12.456;2023-09-30T04:11:02;96261;;;13.3;94.8
56558;BME280;43358;50.356;12.456;2023-09-30T04:12:04;96263;;;13.3;94.9
56558;BME280;43358;50.356;12.456;2023-09-30T04:14:08;96259;;;13.3;95.7
56558;BME280;43358;50.356;12.456;2023-09-30T04:15:10;96263;;;13.2;95.3
56558;BME280;43358;50.356;12.456;2023-09-30T04:18:40;96260;;;13.1;94.3
56558;BME280;43358;50.356;12.456;2023-09-30T04:20:14;96256;;;13.2;94.8
56558;BME280;43358;50.356;12.456;2023-09-30T04:22:19;96266;;;13.2;93.9
56558;BME280;43358;50.356;12.456;2023-09-30T04:23:21;96264;;;13.2;94.6
56558;BME280;43358;50.356;12.456;2023-09-30T04:26:36;96254;;;13.1;94.8
56558;BME280;43358;50.356;12.456;2023-09-30T04:27:38;96250;;;13;94.8
56558;BME280;43358;50.356;12.456;2023-09-30T04:28:41;96252;;;13;95.4
56558;BME280;43358;50.356;12.456;2023-09-30T04:30:50;96251;;;13;95.7
56558;BME280;43358;50.356;12.456;2023-09-30T04:33:57;96252;;;12.8;96.1
56558;BME280;43358;50.356;12.456;2023-09-30T04:34:59;96249;;;12.8;96.3
56558;BME280;43358;50.356;12.456;2023-09-30T04:36:01;96252;;;12.8;96.3
56558;BME280;43358;50.356;12.456;2023-09-30T04:37:03;96254;;;12.8;95.9
56558;BME280;43358;50.356;12.456;2023-09-30T04:39:24;96258;;;12.8;96.6
56558;BME280;43358;50.356;12.456;2023-09-30T04:40:45;96260;;;12.8;96.6
56558;BME280;43358;50.356;12.456;2023-09-30T04:41:11;96257;;;12.8;97
56558;BME280;43358;50.356;12.456;2023-09-30T04:42:47;96249;;;12.8;96.8
56558;BME280;43358;50.356;12.456;2023-09-30T04:43:34;96250;;;12.8;96.7
56558;BME280;43358;50.356;12.456;2023-09-30T04:44:36;96255;;;12.8;96.7
56558;BME280;43358;50.356;12.456;2023-09-30T04:45:38;96260;;;12.8;97.2
56558;BME280;43358;50.356;12.456;2023-09-30T04:46:41;96259;;;12.9;96.7
56558;BME280;43358;50.356;12.456;2023-09-30T04:47:43;96255;;;12.9;96.8
56558;BME280;43358;50.356;12.456;2023-09-30T04:48:51;96251;;;12.9;95.4
56558;BME280;43358;50.356;12.456;2023-09-30T04:49:49;96253;;;12.9;95.6
56558;BME280;43358;50.356;12.456;2023-09-30T04:50:55;96253;;;12.8;96.2
56558;BME280;43358;50.356;12.456;2023-09-30T04:51:57;96255;;;12.8;96.3
56558;BME280;43358;50.356;12.456;2023-09-30T04:53:00;96253;;;12.8;96.2
56558;BME280;43358;50.356;12.456;2023-09-30T04:54:02;96249;;;12.8;96.2
56558;BME280;43358;50.356;12.456;2023-09-30T04:55:04;96256;;;12.8;95.5
56558;BME280;43358;50.356;12.456;2023-09-30T04:57:10;96259;;;12.8;95.8
56558;BME280;43358;50.356;12.456;2023-09-30T04:57:11;96259;;;12.8;96
56558;BME280;43358;50.356;12.456;2023-09-30T04:58:13;96261;;;12.8;96.2
56558;BME280;43358;50.356;12.456;2023-09-30T04:59:15;96264;;;12.8;96.3
56558;BME280;43358;50.356;12.456;2023-09-30T05:01:20;96269;;;12.8;96.4
56558;BME280;43358;50.356;12.456;2023-09-30T05:02:35;96266;;;12.7;96.6
56558;BME280;43358;50.356;12.456;2023-09-30T05:04:27;96267;;;12.7;96.8
56558;BME280;43358;50.356;12.456;2023-09-30T05:05:29;96265;;;12.7;96.3
56558;BME280;43358;50.356;12.456;2023-09-30T05:06:32;96267;;;12.7;96.5
56558;BME280;43358;50.356;12.456;2023-09-30T05:07:33;96266;;;12.7;96.6
56558;BME280;43358;50.356;12.456;2023-09-30T05:08:35;96270;;;12.7;96.2
56558;BME280;43358;50.356;12.456;2023-09-30T05:09:37;96270;;;12.7;96
56558;BME280;43358;50.356;12.456;2023-09-30T05:10:39;96270;;;12.7;96.8
56558;BME280;43358;50.356;12.456;2023-09-30T05:11:41;96269;;;12.7;97
56558;BME280;43358;50.356;12.456;2023-09-30T05:16:40;96271;;;12.7;97.2
56558;BME280;43358;50.356;12.456;2023-09-30T05:17:20;96270;;;12.7;96
56558;BME280;43358;50.356;12.456;2023-09-30T05:20:35;96276;;;12.8;94.7
56558;BME280;43358;50.356;12.456;2023-09-30T05:21:04;96268;;;12.8;94.2
56558;BME280;43358;50.356;12.456;2023-09-30T05:22:06;96269;;;12.9;93.4
56558;BME280;43358;50.356;12.456;2023-09-30T05:23:28;96269;;;12.9;93
56558;BME280;43358;50.356;12.456;2023-09-30T05:25:49;96269;;;13;92.2
56558;BME280;43358;50.356;12.456;2023-09-30T05:26:51;96267;;;13;92.8
56558;BME280;43358;50.356;12.456;2023-09-30T05:33:30;96271;;;13;93.2
56558;BME280;43358;50.356;12.456;2023-09-30T05:33:31;96275;;;13;93.3
56558;BME280;43358;50.356;12.456;2023-09-30T05:34:09;96279;;;12.9;94.2
56558;BME280;43358;50.356;12.456;2023-09-30T05:36:24;96276;;;12.8;94
56558;BME280;43358;50.356;12.456;2023-09-30T05:37:26;96272;;;12.7;95
56558;BME280;43358;50.356;12.456;2023-09-30T05:38:28;96272;;;12.7;95
56558;BME280;43358;50.356;12.456;2023-09-30T05:39:30;96274;;;12.7;95
56558;BME280;43358;50.356;12.456;2023-09-30T05:40:32;96273;;;12.7;95.2
56558;BME280;43358;50.356;12.456;2023-09-30T05:42:44;96277;;;12.6;95.4
56558;BME280;43358;50.356;12.456;2023-09-30T05:45:13;96277;;;12.7;95.2
56558;BME280;43358;50.356;12.456;2023-09-30T05:46:15;96281;;;12.6;94.8
56558;BME280;43358;50.356;12.456;2023-09-30T05:47:17;96282;;;12.7;95.1
56558;BME280;43358;50.356;12.456;2023-09-30T05:49:55;96290;;;12.6;95.6
56558;BME280;43358;50.356;12.456;2023-09-30T05:50:47;96295;;;12.6;96
56558;BME280;43358;50.356;12.456;2023-09-30T05:51:47;96299;;;12.6;95.5
56558;BME280;43358;50.356;12.456;2023-09-30T05:52:48;96296;;;12.5;95.2
56558;BME280;43358;50.356;12.456;2023-09-30T05:54:52;96304;;;12.5;95.3
56558;BME280;43358;50.356;12.456;2023-09-30T05:56:58;96311;;;12.5;95.9
56558;BME280;43358;50.356;12.456;2023-09-30T05:59:47;96319;;;12.5;95.5
56558;BME280;43358;50.356;12.456;2023-09-30T06:01:53;96323;;;12.5;94.4
56558;BME280;43358;50.356;12.456;2023-09-30T06:03:25;96318;;;12.6;93.9
56558;BME280;43358;50.356;12.456;2023-09-30T06:07:05;96332;;;12.7;91.3
56558;BME280;43358;50.356;12.456;2023-09-30T06:07:05;96328;;;12.6;92.1
56558;BME280;43358;50.356;12.456;2023-09-30T06:07:49;96334;;;12.7;91.8
56558;BME280;43358;50.356;12.456;2023-09-30T06:12:59;96349;;;12.6;92.6
56558;BME280;43358;50.356;12.456;2023-09-30T06:14:14;96349;;;12.6;93.2
56558;BME280;43358;50.356;12.456;2023-09-30T06:15:36;96348;;;12.5;92.5
56558;BME280;43358;50.356;12.456;2023-09-30T06:16:06;96348;;;12.5;93.1
56558;BME280;43358;50.356;12.456;2023-09-30T06:18:10;96339;;;12.5;92.9
56558;BME280;43358;50.356;12.456;2023-09-30T06:19:12;96336;;;12.6;91.9
56558;BME280;43358;50.356;12.456;2023-09-30T06:20:30;96335;;;12.7;91.9
56558;BME280;43358;50.356;12.456;2023-09-30T06:21:32;96336;;;12.7;92.2
56558;BME280;43358;50.356;12.456;2023-09-30T06:22:34;96336;;;12.6;92.7
56558;BME280;43358;50.356;12.456;2023-09-30T06:23:47;96335;;;12.6;93.6
56558;BME280;43358;50.356;12.456;2023-09-30T06:24:47;96333;;;12.5;94
56558;BME280;43358;50.356;12.456;2023-09-30T06:25:47;96332;;;12.5;94.6
56558;BME280;43358;50.356;12.456;2023-09-30T06:29:01;96334;;;12.5;94.1
56558;BME280;43358;50.356;12.456;2023-09-30T06:29:02;96337;;;12.5;93.9
56558;BME280;43358;50.356;12.456;2023-09-30T06:30:05;96341;;;12.5;93.9
56558;BME280;43358;50.356;12.456;2023-09-30T06:31:07;96337;;;12.5;93.8
56558;BME280;43358;50.356;12.456;2023-09-30T06:32:09;96337;;;12.5;94.4
56558;BME280;43358;50.356;12.456;2023-09-30T06:42:44;96354;;;12.5;94.1
56558;BME280;43358;50.356;12.456;2023-09-30T10:40:46;96368;;;12.5;94.1
56558;BME280;43358;50.356;12.456;2023-09-30T10:40:47;96365;;;12.6;93.3
56558;BME280;43358;50.356;12.456;2023-09-30T10:41:54;96448;;;16.6;81.8
56558;BME280;43358;50.356;12.456;2023-09-30T10:42:46;96448;;;16.8;79.9
56558;BME280;43358;50.356;12.456;2023-09-30T10:43:39;96446;;;16.9;74.3
56558;BME280;43358;50.356;12.456;2023-09-30T10:44:38;96443;;;16.9;75
56558;BME280;43358;50.356;12.456;2023-09-30T10:45:42;96446;;;16.9;77.4
56558;BME280;43358;50.356;12.456;2023-09-30T10:46:38;96447;;;16.9;77.6
56558;BME280;43358;50.356;12.456;2023-09-30T10:47:38;96447;;;16.9;78.9
56558;BME280;43358;50.356;12.456;2023-09-30T10:48:38;96447;;;16.9;78.4
56558;BME280;43358;50.356;12.456;2023-09-30T10:49:38;96450;;;17;81.3
56558;BME280;43358;50.356;12.456;2023-09-30T10:50:57;96445;;;17.1;77
56558;BME280;43358;50.356;12.456;2023-09-30T10:51:39;96444;;;17.1;76.4
56558;BME280;43358;50.356;12.456;2023-09-30T10:52:38;96440;;;17.2;75.4
56558;BME280;43358;50.356;12.456;2023-09-30T10:53:43;96439;;;17.2;71.5
56558;BME280;43358;50.356;12.456;2023-09-30T10:54:38;96436;;;17.2;72.2
56558;BME280;43358;50.356;12.456;2023-09-30T10:55:38;96441;;;17.2;72.6
56558;BME280;43358;50.356;12.456;2023-09-30T10:56:38;96442;;;17.1;73.5
56558;BME280;43358;50.356;12.456;2023-09-30T10:57:38;96440;;;17.1;72.5
56558;BME280;43358;50.356;12.456;2023-09-30T10:58:39;96443;;;17.1;72.3
56558;BME280;43358;50.356;12.456;2023-09-30T10:59:38;96442;;;17.2;79
56558;BME280;43358;50.356;12.456;2023-09-30T11:00:39;96439;;;17.3;78.7
56558;BME280;43358;50.356;12.456;2023-09-30T11:01:41;96435;;;17.3;72.8
56558;BME280;43358;50.356;12.456;2023-09-30T11:02:50;96434;;;17.3;73.8
56558;BME280;43358;50.356;12.456;2023-09-30T11:04:45;96434;;;17.4;73.6
56558;BME280;43358;50.356;12.456;2023-09-30T11:05:39;96429;;;17.4;74.4
56558;BME280;43358;50.356;12.456;2023-09-30T11:06:39;96431;;;17.4;75.4
56558;BME280;43358;50.356;12.456;2023-09-30T11:07:38;96431;;;17.4;73.9
56558;BME280;43358;50.356;12.456;2023-09-30T11:08:40;96427;;;17.5;74.6
56558;BME280;43358;50.356;12.456;2023-09-30T11:09:38;96425;;;17.4;72.5
56558;BME280;43358;50.356;12.456;2023-09-30T11:10:46;96423;;;17.4;74.6
56558;BME280;43358;50.356;12.456;2023-09-30T11:11:39;96424;;;17.3;73.8
56558;BME280;43358;50.356;12.456;2023-09-30T11:12:39;96425;;;17.3;74.2
56558;BME280;43358;50.356;12.456;2023-09-30T11:13:38;96429;;;17.3;73.8
56558;BME280;43358;50.356;12.456;2023-09-30T11:14:38;96431;;;17.3;73.4
56558;BME280;43358;50.356;12.456;2023-09-30T11:15:39;96428;;;17.4;72.5
56558;BME280;43358;50.356;12.456;2023-09-30T11:16:40;96426;;;17.3;72.4
56558;BME280;43358;50.356;12.456;2023-09-30T11:17:38;96430;;;17.3;74.5
56558;BME280;43358;50.356;12.456;2023-09-30T11:18:38;96429;;;17.3;73.9
56558;BME280;43358;50.356;12.456;2023-09-30T11:19:45;96432;;;17.3;74.9
56558;BME280;43358;50.356;12.456;2023-09-30T11:20:38;96428;;;17.4;74.9
56558;BME280;43358;50.356;12.456;2023-09-30T11:22:38;96426;;;17.4;76.5
56558;BME280;43358;50.356;12.456;2023-09-30T11:23:39;96426;;;17.4;76.3
56558;BME280;43358;50.356;12.456;2023-09-30T11:25:38;96423;;;17.5;74.2
56558;BME280;43358;50.356;12.456;2023-09-30T11:26:40;96424;;;17.5;75.1
56558;BME280;43358;50.356;12.456;2023-09-30T11:27:42;96422;;;17.5;74.4
56558;BME280;43358;50.356;12.456;2023-09-30T11:28:44;96425;;;17.5;75.4
56558;BME280;43358;50.356;12.456;2023-09-30T11:29:48;96426;;;17.5;74
56558;BME280;43358;50.356;12.456;2023-09-30T11:30:54;96425;;;17.5;75.6
56558;BME280;43358;50.356;12.456;2023-09-30T11:31:52;96426;;;17.6;75.5
56558;BME280;43358;50.356;12.456;2023-09-30T11:32:58;96429;;;17.6;75.7
56558;BME280;43358;50.356;12.456;2023-09-30T11:33:56;96424;;;17.6;74.4
56558;BME280;43358;50.356;12.456;2023-09-30T11:36:05;96423;;;17.7;80.1
56558;BME280;43358;50.356;12.456;2023-09-30T11:38:16;96418;;;17.8;73.3
56558;BME280;43358;50.356;12.456;2023-09-30T11:39:21;96416;;;17.8;71.6
56558;BME280;43358;50.356;12.456;2023-09-30T11:40:18;96421;;;17.9;71.5
56558;BME280;43358;50.356;12.456;2023-09-30T11:41:20;96416;;;17.9;73.1
56558;BME280;43358;50.356;12.456;2023-09-30T11:43:26;96407;;;17.9;70.9
56558;BME280;43358;50.356;12.456;2023-09-30T11:44:29;96402;;;17.9;72.4
56558;BME280;43358;50.356;12.456;2023-09-30T11:45:33;96400;;;17.9;76.6
56558;BME280;43358;50.356;12.456;2023-09-30T11:46:53;96401;;;17.9;73.4
56558;BME280;43358;50.356;12.456;2023-09-30T11:47:41;96400;;;18;72.3
56558;BME280;43358;50.356;12.456;2023-09-30T11:49:52;96397;;;18;72.5
56558;BME280;43358;50.356;12.456;2023-09-30T11:50:53;96395;;;18;72.7
56558;BME280;43358;50.356;12.456;2023-09-30T11:51:58;96400;;;18.1;73.1
56558;BME280;43358;50.356;12.456;2023-09-30T11:53:01;96395;;;18.1;74
56558;BME280;43358;50.356;12.456;2023-09-30T11:54:05;96394;;;18.1;72.6
56558;BME280;43358;50.356;12.456;2023-09-30T11:55:09;96397;;;18.1;73.8
56558;BME280;43358;50.356;12.456;2023-09-30T11:56:13;96397;;;18.1;73.5
56558;BME280;43358;50.356;12.456;2023-09-30T11:57:17;96396;;;18.1;72.3
56558;BME280;43358;50.356;12.456;2023-09-30T11:58:21;96396;;;18.2;71.2
56558;BME280;43358;50.356;12.456;2023-09-30T11:59:26;96391;;;18.3;69.6
56558;BME280;43358;50.356;12.456;2023-09-30T12:00:35;96392;;;18.2;71.5
56558;BME280;43358;50.356;12.456;2023-09-30T12:03:55;96391;;;18.3;71.8
56558;BME280;43358;50.356;12.456;2023-09-30T12:04:59;96388;;;18.4;71.3
56558;BME280;43358;50.356;12.456;2023-09-30T12:06:03;96391;;;18.4;69.9
56558;BME280;43358;50.356;12.456;2023-09-30T12:07:08;96389;;;18.4;70.5
56558;BME280;43358;50.356;12.456;2023-09-30T12:11:37;96392;;;18.6;69.6
56558;BME280;43358;50.356;12.456;2023-09-30T12:14:51;96399;;;18.9;69.7
56558;BME280;43358;50.356;12.456;2023-09-30T12:15:54;96403;;;18.9;68.8
56558;BME280;43358;50.356;12.456;2023-09-30T12:16:58;96409;;;19;66.3
56558;BME280;43358;50.356;12.456;2023-09-30T12:18:03;96413;;;19;67
56558;BME280;43358;50.356;12.456;2023-09-30T12:19:07;96410;;;19.1;66.1
56558;BME280;43358;50.356;12.456;2023-09-30T12:21:14;96404;;;19.2;67.2
56558;BME280;43358;50.356;12.456;2023-09-30T12:22:19;96393;;;19.2;68.4
56558;BME280;43358;50.356;12.456;2023-09-30T12:23:23;96384;;;19.3;67.9
56558;BME280;43358;50.356;12.456;2023-09-30T12:24:27;96384;;;19.3;67.8
56558;BME280;43358;50.356;12.456;2023-09-30T12:25:31;96380;;;19.3;68.2
56558;BME280;43358;50.356;12.456;2023-09-30T12:26:35;96372;;;19.3;67.7
56558;BME280;43358;50.356;12.456;2023-09-30T12:27:45;96370;;;19.5;68.2
56558;BME280;43358;50.356;12.456;2023-09-30T12:30:39;96367;;;19.6;68.3
56558;BME280;43358;50.356;12.456;2023-09-30T12:31:38;96369;;;19.5;67.5
56558;BME280;43358;50.356;12.456;2023-09-30T12:33:01;96369;;;19.5;66.6
56558;BME280;43358;50.356;12.456;2023-09-30T12:34:05;96369;;;19.4;71.7
56558;BME280;43358;50.356;12.456;2023-09-30T12:35:09;96367;;;19.4;69
56558;BME280;43358;50.356;12.456;2023-09-30T12:37:17;96362;;;19.4;66.6
56558;BME280;43358;50.356;12.456;2023-09-30T12:38:21;96364;;;19.3;65.7
56558;BME280;43358;50.356;12.456;2023-09-30T12:39:25;96364;;;19.1;66.2
56558;BME280;43358;50.356;12.456;2023-09-30T12:40:29;96366;;;19;66.8
56558;BME280;43358;50.356;12.456;2023-09-30T12:41:31;96368;;;18.9;66.6
56558;BME280;43358;50.356;12.456;2023-09-30T12:43:39;96361;;;18.7;68.1
56558;BME280;43358;50.356;12.456;2023-09-30T12:44:41;96368;;;18.5;67.7
56558;BME280;43358;50.356;12.456;2023-09-30T12:45:45;96366;;;18.5;66.3
56558;BME280;43358;50.356;12.456;2023-09-30T12:46:48;96372;;;18.4;69
56558;BME280;43358;50.356;12.456;2023-09-30T12:47:52;96369;;;18.4;67.8
56558;BME280;43358;50.356;12.456;2023-09-30T12:50:13;96362;;;18.3;68.2
56558;BME280;43358;50.356;12.456;2023-09-30T12:53:51;96363;;;18.1;70
56558;BME280;43358;50.356;12.456;2023-09-30T12:56:03;96357;;;18;68.4
56558;BME280;43358;50.356;12.456;2023-09-30T12:57:07;96360;;;18;68.1
56558;BME280;43358;50.356;12.456;2023-09-30T12:58:09;96355;;;17.9;68.4
56558;BME280;43358;50.356;12.456;2023-09-30T12:59:11;96351;;;17.8;68.4
56558;BME280;43358;50.356;12.456;2023-09-30T13:00:15;96349;;;17.8;68.6
56558;BME280;43358;50.356;12.456;2023-09-30T13:01:17;96348;;;17.8;68.7
56558;BME280;43358;50.356;12.456;2023-09-30T13:02:19;96356;;;17.9;64.7
56558;BME280;43358;50.356;12.456;2023-09-30T13:03:21;96359;;;17.8;64.3
56558;BME280;43358;50.356;12.456;2023-09-30T13:04:23;96355;;;17.8;63.6
56558;BME280;43358;50.356;12.456;2023-09-30T13:05:27;96358;;;17.7;65.5
56558;BME280;43358;50.356;12.456;2023-09-30T13:06:29;96354;;;17.6;66
56558;BME280;43358;50.356;12.456;2023-09-30T13:07:31;96355;;;17.6;65.5
56558;BME280;43358;50.356;12.456;2023-09-30T13:08:33;96354;;;17.5;65.8
56558;BME280;43358;50.356;12.456;2023-09-30T13:09:35;96352;;;17.6;66.2
56558;BME280;43358;50.356;12.456;2023-09-30T13:10:38;96356;;;17.6;65.3
56558;BME280;43358;50.356;12.456;2023-09-30T13:11:40;96357;;;17.6;67
56558;BME280;43358;50.356;12.456;2023-09-30T13:12:42;96357;;;17.6;68
56558;BME280;43358;50.356;12.456;2023-09-30T13:14:46;96355;;;17.5;67.7
56558;BME280;43358;50.356;12.456;2023-09-30T13:15:50;96353;;;17.5;72.3
56558;BME280;43358;50.356;12.456;2023-09-30T13:16:54;96351;;;17.5;70.4
56558;BME280;43358;50.356;12.456;2023-09-30T13:17:56;96347;;;17.6;69.2